Weather at Military Airfield of Alcochete

Public forecast

Using degrees Celsius for public forecast. Weather courtesy of forecast.io.

Closest aviation weather report (METAR) to Military Airfield of Alcochete

Closest report is Montijo Air Base, 11.6 nm (21.4 km) WSW. Retrieved 2020/10/21 21:00 UTC (1 minute ago):

LPMT 212100Z 16005KT 9999 FEW025 16/14 Q1009

Closest aviation forecast (TAF) to Military Airfield of Alcochete

Closest forecast is Montijo Air Base, 11.6 nm (21.4 km) WSW. Retrieved 2020/10/21 18:12 UTC (3 hours ago):

TAF LPMT 211705Z 2118/2218 22010KT 9999 SCT025 BECMG 2118/2120 19005KT TEMPO 2118/2218 5000 SHRA BKN015 FEW022TCU BECMG 2210/2212 24010KT